Time;durP1;ratioP1;P1;durP2;ratioP2;P2;SDS_P1;SDS_P2;PMS_P1;PMS_P2;Temp;Humidity;BMP_temperature;BMP_pressure;BME280_temperature;BME280_humidity;BME280_pressure;Samples;Min_cycle;Max_cycle;Signal;HPM_P1;HPM_P2
2023/05/17 00:01:58;;;;;;;4.68;2.50;;;11.20;99.90;;;;;;4959222;28;20209;-76
2023/05/17 00:04:28;;;;;;;6.95;2.80;;;11.10;99.90;;;;;;4957469;28;20694;-76
2023/05/17 00:06:56;;;;;;;6.80;3.10;;;11.20;99.90;;;;;;4953482;28;20201;-76
2023/05/17 00:09:23;;;;;;;5.07;2.58;;;11.00;99.90;;;;;;4952968;28;20221;-76
2023/05/17 00:11:51;;;;;;;6.35;3.05;;;11.00;99.90;;;;;;4953811;28;20186;-76
2023/05/17 00:14:19;;;;;;;6.68;2.65;;;11.00;99.90;;;;;;4948592;28;20205;-76
2023/05/17 00:16:47;;;;;;;5.68;3.13;;;10.90;99.90;;;;;;4952326;28;20583;-76
2023/05/17 00:19:14;;;;;;;5.15;3.10;;;11.00;99.90;;;;;;4951737;28;20225;-76
2023/05/17 00:21:42;;;;;;;7.32;3.00;;;11.00;99.90;;;;;;4948204;28;20209;-76
2023/05/17 00:24:09;;;;;;;5.78;3.47;;;11.00;99.90;;;;;;4952451;28;20576;-76
2023/05/17 00:26:37;;;;;;;5.70;3.08;;;11.00;99.90;;;;;;4952265;28;20190;-76
2023/05/17 00:29:04;;;;;;;3.92;2.50;;;10.90;99.90;;;;;;4951127;28;20222;-76
2023/05/17 00:31:33;;;;;;;6.15;2.78;;;10.90;99.90;;;;;;4984760;28;20212;-76
2023/05/17 00:34:01;;;;;;;5.32;2.63;;;10.80;99.90;;;;;;4953174;28;20193;-76
2023/05/17 00:36:28;;;;;;;6.03;2.80;;;10.80;99.90;;;;;;4983288;28;20217;-76
2023/05/17 00:38:56;;;;;;;8.55;3.10;;;10.70;99.90;;;;;;4952887;28;20201;-76
2023/05/17 00:41:23;;;;;;;4.95;2.65;;;10.80;99.90;;;;;;4950175;28;20202;-76
2023/05/17 00:43:51;;;;;;;7.20;3.80;;;10.80;99.90;;;;;;4953321;28;20212;-76
2023/05/17 00:46:18;;;;;;;5.90;3.08;;;10.70;99.90;;;;;;4953293;28;20217;-76
2023/05/17 00:48:47;;;;;;;5.23;3.27;;;10.70;99.90;;;;;;4956422;28;20213;-76
2023/05/17 00:51:17;;;;;;;6.38;4.13;;;10.70;99.90;;;;;;4951480;28;20198;-76
2023/05/17 00:53:45;;;;;;;6.00;3.30;;;10.50;99.90;;;;;;4978808;28;20213;-76
2023/05/17 00:56:13;;;;;;;5.25;3.17;;;10.60;99.90;;;;;;4977755;28;20206;-76
2023/05/17 00:58:41;;;;;;;5.53;3.00;;;10.60;99.90;;;;;;4952659;28;20202;-76
2023/05/17 01:01:08;;;;;;;4.45;2.78;;;10.60;99.90;;;;;;4949681;28;20216;-76
2023/05/17 01:03:36;;;;;;;5.30;3.13;;;10.50;99.90;;;;;;4967388;28;20206;-76
2023/05/17 01:06:06;;;;;;;6.35;2.90;;;10.60;99.90;;;;;;4967117;28;20213;-76
2023/05/17 01:08:35;;;;;;;4.13;3.03;;;10.60;99.90;;;;;;4947376;28;20205;-75
2023/05/17 01:11:25;;;;;;;8.77;3.28;;;10.60;99.90;;;;;;4965075;28;20237;-76
2023/05/17 01:13:59;;;;;;;6.13;3.23;;;10.30;99.90;;;;;;4947733;28;20227;-76
2023/05/17 01:16:33;;;;;;;5.28;3.22;;;10.30;99.90;;;;;;4941753;28;20205;-76
2023/05/17 01:19:11;;;;;;;6.45;3.00;;;10.20;99.90;;;;;;4948961;28;20198;-76
2023/05/17 01:21:56;;;;;;;10.27;3.80;;;10.20;99.90;;;;;;4982166;28;20194;-76
2023/05/17 01:24:28;;;;;;;5.67;3.47;;;10.10;99.90;;;;;;4943298;28;20202;-76
2023/05/17 01:26:59;;;;;;;6.63;3.80;;;9.90;99.90;;;;;;4949083;28;20209;-76
2023/05/17 01:29:30;;;;;;;8.13;3.60;;;9.90;99.90;;;;;;4952241;28;20236;-76
2023/05/17 01:31:59;;;;;;;5.83;3.40;;;10.00;99.90;;;;;;4971883;28;20202;-76
2023/05/17 01:34:27;;;;;;;7.83;3.40;;;9.80;99.90;;;;;;4948401;28;20204;-76
2023/05/17 01:36:54;;;;;;;5.40;3.10;;;9.70;99.90;;;;;;4946461;28;20229;-76
2023/05/17 01:39:22;;;;;;;5.00;3.50;;;9.80;99.90;;;;;;4967429;28;20718;-76
2023/05/17 01:41:59;;;;;;;7.67;3.60;;;10.00;99.90;;;;;;4967372;28;20202;-76
2023/05/17 01:44:33;;;;;;;7.87;3.67;;;9.80;99.90;;;;;;4980958;28;20197;-76
2023/05/17 01:47:18;;;;;;;5.87;3.47;;;9.90;99.90;;;;;;4949669;28;20194;-76
2023/05/17 01:49:53;;;;;;;8.87;3.77;;;9.80;99.90;;;;;;4949812;28;20228;-76
2023/05/17 01:52:28;;;;;;;5.93;3.83;;;9.70;99.90;;;;;;4953531;28;20224;-76
2023/05/17 01:55:08;;;;;;;7.93;3.80;;;9.70;99.90;;;;;;4950143;28;20205;-76
2023/05/17 01:57:37;;;;;;;7.77;3.93;;;9.80;99.90;;;;;;4943498;28;20213;-76
2023/05/17 02:00:08;;;;;;;6.73;3.83;;;9.80;99.90;;;;;;4955292;28;20229;-75
2023/05/17 02:02:42;;;;;;;7.10;3.17;;;9.80;99.90;;;;;;4958211;28;20193;-76
2023/05/17 02:05:09;;;;;;;7.87;3.90;;;9.70;99.90;;;;;;4965163;28;20193;-76
2023/05/17 02:07:40;;;;;;;6.57;3.73;;;9.80;99.90;;;;;;4939854;28;20204;-76
2023/05/17 02:10:08;;;;;;;5.07;3.60;;;9.80;99.90;;;;;;4951387;28;20227;-76
2023/05/17 02:12:38;;;;;;;10.60;4.27;;;9.70;99.90;;;;;;4954999;28;20206;-76
2023/05/17 02:15:10;;;;;;;6.03;4.00;;;9.50;99.90;;;;;;4948901;28;20209;-76
2023/05/17 02:17:43;;;;;;;7.33;3.57;;;9.60;99.90;;;;;;4950074;28;20210;-76
2023/05/17 02:20:11;;;;;;;9.70;4.07;;;9.70;99.90;;;;;;4947816;28;20579;-76
2023/05/17 02:22:39;;;;;;;9.50;4.07;;;9.90;99.90;;;;;;4953132;28;20213;-76
2023/05/17 02:25:07;;;;;;;6.97;4.18;;;10.00;99.90;;;;;;4951625;28;20205;-76
2023/05/17 02:27:35;;;;;;;11.03;4.20;;;9.70;99.90;;;;;;4950911;28;20217;-76
2023/05/17 02:30:05;;;;;;;10.30;4.07;;;9.70;99.90;;;;;;4950953;28;20228;-76
2023/05/17 02:32:32;;;;;;;9.02;4.70;;;9.60;99.90;;;;;;4951760;28;20201;-76
2023/05/17 02:35:00;;;;;;;7.10;3.73;;;9.60;99.90;;;;;;4952681;28;20203;-76
2023/05/17 02:37:27;;;;;;;7.13;3.93;;;9.70;99.90;;;;;;4949888;28;20570;-76
2023/05/17 02:39:55;;;;;;;8.52;4.47;;;9.90;99.90;;;;;;4981084;28;20218;-77
2023/05/17 02:42:22;;;;;;;8.15;4.20;;;9.90;99.90;;;;;;4955402;28;20290;-77
2023/05/17 02:44:51;;;;;;;8.85;4.13;;;10.00;99.90;;;;;;4955748;29;20197;-76
2023/05/17 02:47:20;;;;;;;5.63;4.00;;;10.00;99.90;;;;;;4980686;28;20206;-76
2023/05/17 02:49:48;;;;;;;7.13;4.33;;;10.10;99.90;;;;;;4965524;28;20226;-76
2023/05/17 02:52:15;;;;;;;8.23;3.93;;;9.80;99.90;;;;;;4984123;28;20206;-76
2023/05/17 02:54:43;;;;;;;9.80;4.13;;;9.60;99.90;;;;;;4982985;28;20703;-76
2023/05/17 02:57:11;;;;;;;8.57;4.77;;;9.60;99.90;;;;;;4949801;28;20537;-76
2023/05/17 02:59:38;;;;;;;7.20;4.20;;;9.40;99.90;;;;;;4960225;28;20214;-76
2023/05/17 03:02:06;;;;;;;10.70;4.93;;;9.40;99.90;;;;;;4956765;28;20198;-76
2023/05/17 03:04:35;;;;;;;7.37;4.20;;;9.50;99.90;;;;;;4962953;28;20217;-76
2023/05/17 03:07:03;;;;;;;5.43;3.97;;;9.70;99.90;;;;;;4951425;28;20213;-76
2023/05/17 03:09:31;;;;;;;6.20;4.07;;;9.60;99.90;;;;;;4954745;28;20221;-76
2023/05/17 03:11:59;;;;;;;7.90;4.80;;;9.50;99.90;;;;;;4963081;28;20194;-76
2023/05/17 03:14:30;;;;;;;8.07;4.57;;;9.40;99.90;;;;;;4969560;28;20205;-76
2023/05/17 03:16:58;;;;;;;10.87;4.53;;;9.40;99.90;;;;;;4987315;28;20197;-76
2023/05/17 03:19:26;;;;;;;8.00;4.33;;;9.50;99.90;;;;;;4970634;28;20229;-76
2023/05/17 03:22:10;;;;;;;10.07;4.67;;;9.50;99.90;;;;;;4983677;28;20240;-76
2023/05/17 03:24:39;;;;;;;6.73;4.77;;;9.70;99.90;;;;;;4967287;28;20245;-76
2023/05/17 03:27:06;;;;;;;8.10;5.00;;;9.60;99.90;;;;;;4955013;28;20202;-76
2023/05/17 03:29:35;;;;;;;7.50;4.70;;;9.70;99.90;;;;;;4977794;28;20209;-76
2023/05/17 03:32:03;;;;;;;8.27;4.80;;;9.50;99.90;;;;;;4957467;28;20194;-76
2023/05/17 03:34:31;;;;;;;8.90;5.10;;;9.70;99.90;;;;;;4955365;28;20206;-76
2023/05/17 03:36:58;;;;;;;7.97;4.23;;;9.50;99.90;;;;;;4951815;28;20206;-76
2023/05/17 03:39:27;;;;;;;10.97;4.57;;;9.60;99.90;;;;;;4968857;28;20244;-76
2023/05/17 03:41:55;;;;;;;7.43;5.00;;;9.40;99.90;;;;;;4954161;28;20205;-76
2023/05/17 03:44:23;;;;;;;10.00;4.80;;;9.50;99.90;;;;;;4953344;28;20204;-76
2023/05/17 03:46:52;;;;;;;10.73;4.90;;;9.70;99.90;;;;;;4957482;28;20232;-76
2023/05/17 03:49:21;;;;;;;10.87;4.93;;;10.00;99.90;;;;;;4953210;28;20222;-76
2023/05/17 03:51:50;;;;;;;7.97;4.50;;;10.00;99.90;;;;;;4953132;28;20205;-76
2023/05/17 03:54:18;;;;;;;8.13;4.78;;;10.00;99.90;;;;;;4968003;28;20217;-76
2023/05/17 03:56:49;;;;;;;10.60;5.10;;;10.20;99.90;;;;;;4948175;28;20198;-76
2023/05/17 03:59:17;;;;;;;12.43;4.87;;;10.10;99.90;;;;;;4968989;28;20226;-76
2023/05/17 04:01:45;;;;;;;10.38;4.65;;;10.00;99.90;;;;;;4966852;28;20210;-79
2023/05/17 04:04:14;;;;;;;14.10;5.37;;;10.10;99.90;;;;;;4958230;28;20204;-79
2023/05/17 04:06:42;;;;;;;10.03;5.20;;;10.20;99.90;;;;;;4956157;28;20694;-79
2023/05/17 04:09:11;;;;;;;18.00;5.53;;;10.10;99.90;;;;;;4958336;28;20213;-79
2023/05/17 04:11:40;;;;;;;15.17;5.63;;;10.10;99.90;;;;;;4960704;28;20685;-79
2023/05/17 04:14:09;;;;;;;11.55;5.20;;;10.00;99.90;;;;;;4964838;28;20680;-79
2023/05/17 04:16:37;;;;;;;10.77;5.03;;;10.00;99.90;;;;;;4956890;28;20217;-79
2023/05/17 04:19:05;;;;;;;11.77;5.37;;;10.00;99.90;;;;;;4988509;28;20233;-78
2023/05/17 04:21:38;;;;;;;11.60;5.90;;;9.90;99.90;;;;;;4957040;28;20208;-79
2023/05/17 04:24:07;;;;;;;10.00;5.30;;;10.00;99.90;;;;;;4969215;28;20197;-79
2023/05/17 04:26:35;;;;;;;13.67;5.67;;;9.90;99.90;;;;;;4955695;28;20795;-79
2023/05/17 04:29:03;;;;;;;14.90;5.97;;;10.00;99.90;;;;;;4981184;28;20218;-79
2023/05/17 04:31:32;;;;;;;11.53;6.70;;;9.90;99.90;;;;;;4973749;28;20208;-78
2023/05/17 04:34:01;;;;;;;11.77;5.70;;;9.90;99.90;;;;;;4988161;28;20205;-79
2023/05/17 04:36:29;;;;;;;12.30;5.45;;;9.80;99.90;;;;;;4973234;28;20198;-79
2023/05/17 04:38:58;;;;;;;10.23;5.43;;;9.80;99.90;;;;;;4973098;28;20202;-79
2023/05/17 04:41:32;;;;;;;10.83;5.50;;;9.90;99.90;;;;;;4953748;28;20241;-79
2023/05/17 04:44:00;;;;;;;13.10;6.47;;;10.00;99.90;;;;;;4972437;28;20209;-79
2023/05/17 04:46:35;;;;;;;11.30;5.77;;;10.00;99.90;;;;;;4956066;28;20564;-79
2023/05/17 04:49:02;;;;;;;9.80;5.70;;;10.10;99.90;;;;;;4971651;28;20193;-79
2023/05/17 04:51:30;;;;;;;10.33;6.10;;;10.00;99.90;;;;;;4963632;28;20198;-79
2023/05/17 04:53:59;;;;;;;11.17;5.50;;;10.00;99.90;;;;;;4984126;28;20221;-79
2023/05/17 04:56:28;;;;;;;13.33;6.33;;;10.00;99.90;;;;;;4972001;28;20197;-79
2023/05/17 04:58:56;;;;;;;11.02;6.00;;;10.10;99.90;;;;;;4956499;28;20221;-79
2023/05/17 05:01:24;;;;;;;11.90;6.20;;;10.40;99.90;;;;;;4983350;28;20575;-79
2023/05/17 05:03:53;;;;;;;13.38;6.28;;;10.30;99.90;;;;;;4966587;28;20221;-79
2023/05/17 05:06:21;;;;;;;9.43;5.20;;;10.20;99.90;;;;;;4948754;28;20222;-77
2023/05/17 05:08:55;;;;;;;10.68;5.45;;;10.30;99.90;;;;;;4967893;28;20191;-79
2023/05/17 05:11:37;;;;;;;11.63;6.18;;;10.30;99.90;;;;;;4952912;28;20205;-79
2023/05/17 05:14:06;;;;;;;13.07;5.53;;;10.30;99.90;;;;;;4965237;28;20201;-81
2023/05/17 05:16:35;;;;;;;10.57;5.90;;;10.40;99.90;;;;;;4954510;28;20205;-79
2023/05/17 05:19:19;;;;;;;10.00;5.93;;;10.50;99.90;;;;;;4963178;28;20209;-78
2023/05/17 05:21:46;;;;;;;14.33;5.63;;;10.60;99.90;;;;;;4972655;28;20198;-78
2023/05/17 05:24:15;;;;;;;13.90;5.80;;;10.60;99.90;;;;;;4963528;28;20198;-79
2023/05/17 05:26:43;;;;;;;12.80;6.00;;;10.50;99.90;;;;;;4961596;28;20668;-78
2023/05/17 05:29:12;;;;;;;9.88;6.03;;;10.60;99.90;;;;;;4963226;28;20224;-78
2023/05/17 05:31:39;;;;;;;13.95;7.32;;;10.70;99.90;;;;;;4962513;28;20205;-79
2023/05/17 05:34:09;;;;;;;9.85;5.50;;;10.80;99.90;;;;;;4966539;28;20660;-78
2023/05/17 05:36:38;;;;;;;12.70;6.15;;;10.80;99.90;;;;;;4970116;28;20652;-79
2023/05/17 05:39:05;;;;;;;9.43;5.13;;;10.90;99.90;;;;;;4956006;28;20233;-79
2023/05/17 05:41:33;;;;;;;13.23;5.70;;;10.90;99.90;;;;;;4952832;28;20198;-78
2023/05/17 05:44:00;;;;;;;13.63;5.43;;;10.90;99.90;;;;;;4978899;28;20209;-77
2023/05/17 05:46:35;;;;;;;12.85;5.97;;;10.90;99.90;;;;;;4948872;28;20202;-79
2023/05/17 05:49:04;;;;;;;13.02;6.70;;;10.90;99.90;;;;;;4979030;28;20217;-78
2023/05/17 05:51:33;;;;;;;15.55;5.50;;;11.10;99.90;;;;;;4968327;28;20205;-78
2023/05/17 05:54:03;;;;;;;9.85;4.50;;;11.20;99.90;;;;;;4943043;28;20208;-78
2023/05/17 05:56:32;;;;;;;14.90;4.28;;;11.10;99.90;;;;;;4980446;28;20193;-79
2023/05/17 05:59:00;;;;;;;11.77;3.85;;;11.20;99.90;;;;;;4964393;28;20210;-78
2023/05/17 06:01:28;;;;;;;14.00;5.78;;;11.10;99.90;;;;;;4975480;28;20201;-78
2023/05/17 06:03:56;;;;;;;10.98;4.30;;;11.10;99.90;;;;;;4966952;28;20201;-78
2023/05/17 06:06:23;;;;;;;12.27;4.25;;;11.00;99.90;;;;;;4981942;28;20212;-78
2023/05/17 06:08:51;;;;;;;10.43;3.95;;;11.10;99.90;;;;;;4948473;28;20209;-78
2023/05/17 06:11:20;;;;;;;8.98;4.35;;;11.30;99.90;;;;;;4948180;28;20205;-78
2023/05/17 06:13:48;;;;;;;18.05;4.90;;;11.30;99.90;;;;;;4985415;28;20198;-77
2023/05/17 06:16:15;;;;;;;11.63;4.28;;;11.10;99.90;;;;;;4970738;28;20209;-78
2023/05/17 06:18:43;;;;;;;9.23;3.45;;;11.30;99.90;;;;;;4952699;28;20205;-78
2023/05/17 06:21:12;;;;;;;10.63;4.47;;;11.30;99.90;;;;;;4996068;28;20212;-78
2023/05/17 06:23:39;;;;;;;16.48;3.15;;;11.20;99.90;;;;;;4963592;28;20682;-77
2023/05/17 06:26:09;;;;;;;9.85;3.47;;;11.10;99.90;;;;;;4957507;28;20216;-78
2023/05/17 06:28:38;;;;;;;14.40;4.53;;;11.20;99.90;;;;;;4968647;28;20208;-78
2023/05/17 06:31:13;;;;;;;14.70;4.38;;;11.40;99.90;;;;;;4980235;28;20214;-78
2023/05/17 06:33:40;;;;;;;9.52;3.08;;;11.30;99.90;;;;;;4953457;28;20193;-79
2023/05/17 06:36:08;;;;;;;9.85;3.08;;;11.40;99.90;;;;;;4953287;28;20206;-78
2023/05/17 06:38:41;;;;;;;8.98;2.58;;;11.30;99.90;;;;;;4957393;28;20221;-77
2023/05/17 06:41:09;;;;;;;7.75;2.75;;;11.40;99.90;;;;;;4965159;28;20700;-78
2023/05/17 06:43:38;;;;;;;10.07;2.90;;;11.40;99.90;;;;;;4952005;28;20197;-78
2023/05/17 06:46:05;;;;;;;8.93;3.55;;;11.60;99.90;;;;;;4951194;28;20213;-78
2023/05/17 06:48:44;;;;;;;11.82;3.13;;;11.60;99.90;;;;;;4954356;28;20209;-80
2023/05/17 06:51:11;;;;;;;8.73;2.95;;;11.60;99.90;;;;;;4953240;28;20194;-79
2023/05/17 06:53:41;;;;;;;6.95;2.53;;;11.70;99.90;;;;;;4956793;28;20202;-78
2023/05/17 06:56:08;;;;;;;13.15;3.78;;;11.70;99.90;;;;;;4956573;28;20221;-78
2023/05/17 06:58:36;;;;;;;9.07;3.17;;;11.60;99.90;;;;;;4971951;28;20201;-78
2023/05/17 07:01:05;;;;;;;8.85;2.80;;;11.70;99.90;;;;;;4988828;28;20221;-79
2023/05/17 07:03:32;;;;;;;12.43;2.53;;;11.90;99.90;;;;;;4995672;28;20200;-78
2023/05/17 07:06:00;;;;;;;10.55;2.92;;;11.90;99.90;;;;;;4963791;28;20535;-78
2023/05/17 07:08:30;;;;;;;9.20;2.95;;;11.90;99.90;;;;;;4957833;28;20203;-79
2023/05/17 07:10:58;;;;;;;7.82;2.67;;;11.90;99.90;;;;;;4968061;28;20221;-79
2023/05/17 07:13:25;;;;;;;10.63;2.60;;;12.00;99.90;;;;;;4991964;28;20648;-79
2023/05/17 07:15:53;;;;;;;5.07;2.50;;;11.90;99.90;;;;;;4961137;28;20213;-79
2023/05/17 07:18:22;;;;;;;7.68;2.53;;;12.00;99.90;;;;;;4972394;28;20220;-78
2023/05/17 07:20:49;;;;;;;9.02;2.10;;;12.30;99.90;;;;;;4955308;28;20217;-78
2023/05/17 07:23:16;;;;;;;8.90;2.60;;;12.50;99.90;;;;;;4971829;28;20202;-78
2023/05/17 07:25:45;;;;;;;7.50;2.70;;;12.60;99.90;;;;;;4953952;28;20205;-78
2023/05/17 07:28:12;;;;;;;10.25;2.70;;;12.40;99.90;;;;;;4958403;28;20201;-78
2023/05/17 07:30:39;;;;;;;9.13;2.60;;;12.30;99.90;;;;;;4974724;28;20553;-77
2023/05/17 07:33:07;;;;;;;8.52;2.47;;;12.20;99.90;;;;;;4974457;28;20205;-78
2023/05/17 07:35:36;;;;;;;10.68;2.90;;;11.80;99.90;;;;;;4965473;28;20206;-78
2023/05/17 07:38:03;;;;;;;10.32;2.50;;;11.60;99.90;;;;;;4970410;28;20212;-78
2023/05/17 07:40:30;;;;;;;8.30;2.85;;;11.50;99.90;;;;;;4958792;29;20217;-78
2023/05/17 07:42:58;;;;;;;8.63;2.88;;;11.50;99.90;;;;;;4957008;28;20653;-79
2023/05/17 07:45:25;;;;;;;5.90;2.15;;;11.60;99.90;;;;;;4956733;28;20213;-78
2023/05/17 07:47:53;;;;;;;7.70;2.17;;;11.70;99.90;;;;;;4990842;28;20209;-78
2023/05/17 07:50:20;;;;;;;5.38;2.25;;;11.60;99.90;;;;;;5001177;28;20229;-78
2023/05/17 07:52:52;;;;;;;7.90;2.45;;;11.60;99.90;;;;;;4958132;28;20198;-79
2023/05/17 07:55:20;;;;;;;8.55;2.17;;;11.70;99.90;;;;;;4956697;29;20202;-78
2023/05/17 07:57:47;;;;;;;6.10;2.00;;;11.70;99.90;;;;;;4955795;28;20202;-78
2023/05/17 08:00:18;;;;;;;7.95;1.90;;;11.70;99.90;;;;;;4957933;28;20229;-79
2023/05/17 08:02:45;;;;;;;7.13;1.95;;;11.70;99.90;;;;;;4963988;28;20209;-78
2023/05/17 08:05:13;;;;;;;9.57;2.53;;;11.70;99.30;;;;;;4998670;28;20209;-78
2023/05/17 08:07:40;;;;;;;7.47;2.05;;;11.70;99.90;;;;;;4973211;28;20684;-78
2023/05/17 08:10:10;;;;;;;6.57;2.13;;;11.70;99.90;;;;;;4957326;29;20213;-79
2023/05/17 08:12:38;;;;;;;6.38;2.05;;;11.70;99.40;;;;;;4957101;29;20213;-79
2023/05/17 08:15:06;;;;;;;7.80;2.25;;;11.70;99.50;;;;;;4998806;28;20202;-77
2023/05/17 08:17:34;;;;;;;8.35;1.88;;;11.60;98.80;;;;;;4975664;28;20208;-78
2023/05/17 08:20:08;;;;;;;5.50;1.90;;;11.70;99.90;;;;;;4958718;28;20234;-78
2023/05/17 08:22:36;;;;;;;5.70;2.15;;;11.70;99.90;;;;;;4956061;28;20193;-77
2023/05/17 08:25:05;;;;;;;5.43;2.22;;;11.70;99.90;;;;;;4967516;28;20208;-77
2023/05/17 08:27:34;;;;;;;8.75;2.08;;;11.80;99.90;;;;;;4968602;28;20201;-79
2023/05/17 08:30:04;;;;;;;4.53;1.90;;;11.70;99.60;;;;;;4966544;28;20222;-78
2023/05/17 08:32:31;;;;;;;5.88;2.20;;;11.70;99.90;;;;;;4949135;28;20202;-78
2023/05/17 08:34:58;;;;;;;9.32;2.10;;;11.80;99.30;;;;;;4966124;28;20201;-80
2023/05/17 08:37:26;;;;;;;4.00;1.65;;;12.50;99.90;;;;;;4967203;28;20221;-79
2023/05/17 08:39:54;;;;;;;6.82;2.38;;;13.40;99.90;;;;;;4953473;28;20225;-79
2023/05/17 08:42:24;;;;;;;4.53;1.98;;;13.90;99.90;;;;;;4990095;28;20222;-79
2023/05/17 08:44:53;;;;;;;7.63;2.40;;;14.20;99.90;;;;;;4953361;28;20662;-80
2023/05/17 08:47:28;;;;;;;8.10;3.00;;;14.50;98.90;;;;;;4967940;28;20210;-80
2023/05/17 08:49:59;;;;;;;6.72;2.40;;;14.30;97.40;;;;;;4958205;28;20227;-80
2023/05/17 08:52:30;;;;;;;6.03;2.00;;;14.30;99.50;;;;;;4949455;28;20208;-78
2023/05/17 08:55:07;;;;;;;7.30;2.00;;;14.00;94.90;;;;;;4950877;28;20209;-78
2023/05/17 08:57:36;;;;;;;6.80;2.35;;;13.20;97.30;;;;;;4956828;29;20647;-79
2023/05/17 09:00:11;;;;;;;5.88;2.03;;;13.50;99.90;;;;;;4984907;28;20232;-79
2023/05/17 09:02:39;;;;;;;6.90;2.00;;;14.20;99.90;;;;;;4984540;28;20202;-79
2023/05/17 09:05:09;;;;;;;3.55;1.73;;;14.40;98.50;;;;;;4958101;28;20205;-79
2023/05/17 09:07:37;;;;;;;7.30;2.40;;;14.10;96.60;;;;;;4989324;28;20213;-79
2023/05/17 09:10:06;;;;;;;6.22;1.90;;;13.50;95.90;;;;;;4960938;28;20221;-80
2023/05/17 09:12:34;;;;;;;5.53;1.80;;;13.40;95.00;;;;;;4956708;28;20206;-79
2023/05/17 09:15:17;;;;;;;5.88;2.25;;;13.80;98.60;;;;;;4971661;28;20361;-78
2023/05/17 09:17:52;;;;;;;6.63;1.80;;;14.00;95.60;;;;;;4944492;28;20719;-78
2023/05/17 09:20:24;;;;;;;7.10;1.85;;;13.90;95.10;;;;;;4968457;28;20237;-78
2023/05/17 09:22:51;;;;;;;6.18;2.40;;;13.90;96.30;;;;;;4969897;28;20209;-78
2023/05/17 09:25:24;;;;;;;5.53;1.80;;;14.20;94.50;;;;;;4956144;28;20193;-78
2023/05/17 09:27:52;;;;;;;5.53;2.08;;;14.20;96.40;;;;;;4977805;28;20193;-79
2023/05/17 09:30:27;;;;;;;7.13;2.25;;;14.60;96.90;;;;;;4951722;28;20229;-78
2023/05/17 09:32:56;;;;;;;6.57;2.17;;;14.00;92.80;;;;;;4951951;28;20193;-78
2023/05/17 09:35:28;;;;;;;4.55;1.88;;;13.40;93.40;;;;;;4953720;28;20217;-78
2023/05/17 09:38:04;;;;;;;4.47;2.10;;;13.10;93.20;;;;;;4944067;29;20194;-77
2023/05/17 09:40:32;;;;;;;4.53;2.00;;;12.60;91.90;;;;;;4959411;28;20219;-78
2023/05/17 09:43:00;;;;;;;7.22;2.38;;;12.70;92.40;;;;;;4953773;28;20209;-78
2023/05/17 09:45:39;;;;;;;5.75;1.77;;;13.00;91.30;;;;;;4977429;28;20694;-78
2023/05/17 09:48:16;;;;;;;7.57;2.20;;;13.00;90.70;;;;;;4993614;28;20197;-77
2023/05/17 09:50:45;;;;;;;5.57;1.95;;;13.20;91.70;;;;;;4968079;28;20225;-77
2023/05/17 09:53:26;;;;;;;5.57;2.05;;;13.30;90.70;;;;;;4943410;28;20212;-76
2023/05/17 09:55:55;;;;;;;4.60;1.75;;;13.40;91.80;;;;;;4967475;28;20204;-78
2023/05/17 09:58:24;;;;;;;5.80;1.83;;;13.70;91.80;;;;;;4950193;28;20222;-78
2023/05/17 10:00:57;;;;;;;7.50;1.77;;;13.80;91.20;;;;;;4949243;28;20228;-77
2023/05/17 10:03:27;;;;;;;7.88;2.25;;;13.80;90.90;;;;;;4950765;28;20212;-78
2023/05/17 10:05:54;;;;;;;7.13;2.10;;;13.70;91.30;;;;;;4944277;28;20197;-78
2023/05/17 10:08:26;;;;;;;5.50;1.70;;;13.70;91.40;;;;;;4982511;28;20209;-77
2023/05/17 10:10:55;;;;;;;6.75;1.70;;;13.60;91.10;;;;;;4980688;28;20621;-78
2023/05/17 10:13:27;;;;;;;5.43;1.80;;;13.40;91.50;;;;;;4977452;28;20213;-77
2023/05/17 10:15:56;;;;;;;7.18;2.38;;;13.50;92.00;;;;;;4948769;28;20202;-78
2023/05/17 10:18:25;;;;;;;7.82;2.30;;;13.60;90.10;;;;;;4979363;28;20205;-78
2023/05/17 10:20:53;;;;;;;9.02;2.08;;;13.60;90.00;;;;;;4983097;28;20225;-78
2023/05/17 10:23:21;;;;;;;4.13;2.50;;;13.90;90.10;;;;;;4982409;28;20699;-78
2023/05/17 10:25:50;;;;;;;4.25;2.20;;;14.00;89.10;;;;;;4949401;28;20209;-78
2023/05/17 10:28:17;;;;;;;6.22;2.00;;;14.20;88.90;;;;;;4981586;28;20637;-78
2023/05/17 10:30:47;;;;;;;8.50;2.63;;;14.40;90.50;;;;;;4951278;28;20302;-78
2023/05/17 10:33:17;;;;;;;5.68;2.22;;;14.00;90.80;;;;;;4957750;28;20274;-78
2023/05/17 10:35:45;;;;;;;6.55;2.42;;;13.50;91.70;;;;;;4948035;28;20695;-77
2023/05/17 10:38:13;;;;;;;4.03;2.15;;;14.30;93.00;;;;;;4971748;28;20216;-77
2023/05/17 10:40:43;;;;;;;6.53;2.22;;;14.30;90.90;;;;;;4949842;28;20226;-79
2023/05/17 10:43:38;;;;;;;4.50;1.60;;;14.30;90.60;;;;;;4947384;28;20221;-77
2023/05/17 10:46:14;;;;;;;7.15;2.38;;;14.30;89.10;;;;;;4968824;28;20205;-77
2023/05/17 10:48:44;;;;;;;5.07;1.63;;;14.30;88.00;;;;;;4944680;28;20206;-79
2023/05/17 10:51:11;;;;;;;7.63;2.30;;;14.60;88.10;;;;;;4962320;28;20228;-77
2023/05/17 10:54:18;;;;;;;7.28;1.98;;;14.50;87.10;;;;;;4980574;28;20213;-77
2023/05/17 10:57:04;;;;;;;6.78;1.98;;;14.60;86.40;;;;;;4943114;28;20213;-77
2023/05/17 10:59:34;;;;;;;8.55;2.20;;;14.80;87.10;;;;;;4949310;28;20707;-77
2023/05/17 11:02:06;;;;;;;7.85;2.80;;;14.60;85.00;;;;;;4951068;28;20234;-78
2023/05/17 11:04:37;;;;;;;6.82;2.40;;;14.30;84.80;;;;;;4967724;28;20204;-78
2023/05/17 11:07:25;;;;;;;5.35;2.55;;;14.20;86.70;;;;;;4969394;28;20197;-78
2023/05/17 11:09:55;;;;;;;5.53;2.45;;;14.60;89.20;;;;;;4951584;28;20221;-77
2023/05/17 11:12:32;;;;;;;7.80;2.55;;;14.50;87.30;;;;;;4953197;28;20206;-77
2023/05/17 11:15:00;;;;;;;6.25;2.40;;;14.20;86.90;;;;;;4954414;28;20197;-78
2023/05/17 11:17:34;;;;;;;5.63;2.08;;;14.30;83.10;;;;;;4954169;28;20206;-78
2023/05/17 11:20:08;;;;;;;5.63;2.22;;;14.70;83.20;;;;;;4983226;28;20221;-79
2023/05/17 11:22:38;;;;;;;3.78;2.28;;;14.70;80.10;;;;;;4967649;28;20217;-77
2023/05/17 11:25:11;;;;;;;5.55;1.85;;;14.70;80.30;;;;;;4951525;28;20205;-78
2023/05/17 11:27:44;;;;;;;6.88;2.22;;;14.70;80.00;;;;;;4954285;28;20656;-78
2023/05/17 11:30:21;;;;;;;5.78;2.08;;;14.60;79.50;;;;;;4985639;28;20237;-78
2023/05/17 11:32:53;;;;;;;3.97;1.98;;;14.90;81.40;;;;;;4981620;28;20200;-77
2023/05/17 11:35:27;;;;;;;4.60;1.52;;;15.30;80.20;;;;;;4969865;28;20205;-78
2023/05/17 11:38:13;;;;;;;4.07;1.90;;;15.50;81.50;;;;;;4968325;28;20656;-78
2023/05/17 11:40:41;;;;;;;4.47;1.80;;;15.00;79.50;;;;;;4955423;28;20228;-78
2023/05/17 11:43:13;;;;;;;5.82;1.90;;;14.90;78.80;;;;;;4952345;28;20238;-78
2023/05/17 11:45:46;;;;;;;5.80;1.55;;;15.40;79.20;;;;;;4952758;28;20580;-78
2023/05/17 11:48:14;;;;;;;6.28;2.30;;;15.60;76.90;;;;;;4979419;28;20214;-78
2023/05/17 11:50:45;;;;;;;3.97;1.95;;;16.20;78.00;;;;;;4943305;28;20226;-78
2023/05/17 11:53:13;;;;;;;5.35;2.05;;;15.40;75.50;;;;;;4952177;28;20656;-78
2023/05/17 11:55:42;;;;;;;6.72;1.90;;;15.20;78.00;;;;;;4953534;28;20217;-78
2023/05/17 11:58:41;;;;;;;4.18;2.05;;;15.50;78.10;;;;;;4977681;28;20205;-77
2023/05/17 12:01:09;;;;;;;6.95;2.40;;;15.70;75.20;;;;;;4948686;28;20252;-78
2023/05/17 12:03:36;;;;;;;3.60;1.80;;;16.10;73.40;;;;;;4970617;28;20605;-78
2023/05/17 12:06:10;;;;;;;5.18;2.05;;;16.20;72.70;;;;;;4954293;28;20202;-78
2023/05/17 12:08:47;;;;;;;6.65;2.30;;;16.10;72.20;;;;;;4954324;28;20197;-78
2023/05/17 12:11:16;;;;;;;4.00;1.80;;;16.40;73.10;;;;;;4954334;28;20202;-78
2023/05/17 12:13:45;;;;;;;5.50;2.08;;;16.10;73.30;;;;;;4998688;23;20220;-77
2023/05/17 12:16:15;;;;;;;6.45;1.77;;;16.30;69.40;;;;;;4977381;28;20197;-78
2023/05/17 12:18:44;;;;;;;5.75;1.98;;;16.30;70.50;;;;;;5005028;28;20204;-78
2023/05/17 12:21:15;;;;;;;5.20;2.00;;;16.70;71.00;;;;;;4997417;28;20201;-77
2023/05/17 12:23:44;;;;;;;5.88;1.77;;;16.90;67.90;;;;;;4990663;28;20243;-77
2023/05/17 12:26:14;;;;;;;4.30;1.67;;;17.10;67.70;;;;;;4974811;28;20189;-77
2023/05/17 12:28:42;;;;;;;5.75;2.00;;;17.20;66.20;;;;;;4989643;28;20546;-77
2023/05/17 12:31:11;;;;;;;4.68;1.60;;;17.50;64.80;;;;;;4972774;28;20212;-77
2023/05/17 12:33:42;;;;;;;3.28;1.77;;;17.20;64.40;;;;;;4973790;28;20217;-77
2023/05/17 12:36:11;;;;;;;5.75;1.88;;;16.50;65.00;;;;;;4990037;28;20208;-77
2023/05/17 12:38:42;;;;;;;2.80;1.52;;;16.50;65.20;;;;;;4973850;28;20224;-77
2023/05/17 12:41:11;;;;;;;5.90;2.20;;;16.60;64.00;;;;;;4973208;28;20216;-77
2023/05/17 12:43:40;;;;;;;6.90;1.73;;;16.40;66.20;;;;;;4974229;28;20561;-77
2023/05/17 12:46:08;;;;;;;3.28;1.33;;;16.40;66.70;;;;;;4973953;28;20197;-77
2023/05/17 12:48:37;;;;;;;3.75;1.60;;;16.20;66.00;;;;;;4990235;28;20196;-77
2023/05/17 12:51:12;;;;;;;4.43;1.83;;;16.30;66.70;;;;;;4989651;28;20208;-77
2023/05/17 12:53:42;;;;;;;2.90;1.58;;;16.60;64.20;;;;;;4974573;28;20701;-77
2023/05/17 12:56:16;;;;;;;5.10;1.77;;;17.10;63.60;;;;;;4990134;28;20228;-77
2023/05/17 12:58:44;;;;;;;3.83;1.55;;;17.40;60.40;;;;;;4973560;28;20212;-77
2023/05/17 13:01:13;;;;;;;3.85;2.10;;;17.20;63.30;;;;;;4973556;28;20212;-77